createdAt,value
2018-02-21T00:00:35.636Z,1.50
2018-02-21T00:03:03.192Z,1.49
2018-02-21T00:05:30.736Z,1.38
2018-02-21T00:07:58.490Z,1.38
2018-02-21T00:10:26.075Z,1.42
2018-02-21T00:12:53.603Z,1.37
2018-02-21T00:15:21.127Z,1.33
2018-02-21T00:17:48.667Z,1.43
2018-02-21T00:20:17.073Z,1.42
2018-02-21T00:22:44.626Z,1.38
2018-02-21T00:25:12.180Z,1.42
2018-02-21T00:27:39.712Z,1.38
2018-02-21T00:30:07.256Z,1.33
2018-02-21T00:32:34.797Z,1.29
2018-02-21T00:35:02.344Z,1.29
2018-02-21T00:37:29.884Z,1.28
2018-02-21T00:39:57.392Z,1.28
2018-02-21T00:42:24.936Z,1.30
2018-02-21T00:44:52.458Z,1.25
2018-02-21T00:47:19.977Z,1.21
2018-02-21T00:49:47.523Z,1.19
2018-02-21T00:52:15.090Z,1.16
2018-02-21T00:54:42.592Z,1.15
2018-02-21T00:57:10.130Z,1.14
2018-02-21T00:59:37.669Z,1.12
2018-02-21T01:02:05.208Z,1.12
2018-02-21T01:04:32.733Z,1.06
2018-02-21T01:07:00.278Z,1.14
2018-02-21T01:09:27.821Z,1.10
2018-02-21T01:11:55.340Z,1.20
2018-02-21T01:14:22.886Z,1.09
2018-02-21T01:16:50.400Z,1.09
2018-02-21T01:19:17.946Z,1.12
2018-02-21T01:21:45.493Z,1.13
2018-02-21T01:24:13.011Z,1.18
2018-02-21T01:26:40.563Z,1.07
2018-02-21T01:29:08.077Z,1.10
2018-02-21T01:31:35.889Z,1.08
2018-02-21T01:34:03.451Z,1.08
2018-02-21T01:36:30.980Z,1.04
2018-02-21T01:38:58.528Z,1.00
2018-02-21T01:41:26.088Z,0.99
2018-02-21T01:43:53.697Z,0.95
2018-02-21T01:46:21.234Z,0.91
2018-02-21T01:48:48.789Z,0.96
2018-02-21T01:51:16.309Z,0.92
2018-02-21T01:53:43.832Z,0.89
2018-02-21T01:56:11.403Z,0.89
2018-02-21T01:58:38.923Z,0.97
2018-02-21T02:01:06.453Z,0.92
2018-02-21T02:03:33.982Z,0.88
2018-02-21T02:06:01.534Z,0.88
2018-02-21T02:08:29.115Z,0.83
2018-02-21T02:10:56.679Z,0.82
2018-02-21T02:13:24.204Z,0.88
2018-02-21T02:15:51.759Z,0.93
2018-02-21T02:18:19.283Z,0.92
2018-02-21T02:20:46.805Z,0.90
2018-02-21T02:23:14.354Z,0.87
2018-02-21T02:25:41.865Z,0.89
2018-02-21T02:28:09.429Z,0.82
2018-02-21T02:30:36.963Z,0.81
2018-02-21T02:33:04.510Z,0.84
2018-02-21T02:35:32.012Z,0.81
2018-02-21T02:37:59.842Z,0.81
2018-02-21T02:40:27.410Z,0.77
2018-02-21T02:42:54.958Z,0.79
2018-02-21T02:45:22.537Z,0.76
2018-02-21T02:47:50.070Z,0.72
2018-02-21T02:50:17.605Z,0.76
2018-02-21T02:52:45.139Z,0.81
2018-02-21T02:55:12.666Z,0.78
2018-02-21T02:57:40.216Z,0.73
2018-02-21T03:00:07.738Z,0.83
2018-02-21T03:02:35.539Z,0.75
2018-02-21T03:05:03.302Z,0.75
2018-02-21T03:07:30.842Z,0.67
2018-02-21T03:09:58.377Z,0.74
2018-02-21T03:12:25.924Z,0.69
2018-02-21T03:14:53.764Z,0.72
2018-02-21T03:17:21.376Z,0.73
2018-02-21T03:19:48.878Z,0.73
2018-02-21T03:22:16.389Z,0.72
2018-02-21T03:24:43.986Z,0.70
2018-02-21T03:27:11.514Z,0.65
2018-02-21T03:29:39.087Z,0.69
2018-02-21T03:32:06.619Z,0.67
2018-02-21T03:34:34.224Z,0.64
2018-02-21T03:37:01.801Z,0.62
2018-02-21T03:39:29.314Z,0.60
2018-02-21T03:41:57.126Z,0.58
2018-02-21T03:44:24.658Z,0.67
2018-02-21T03:46:52.446Z,0.63
2018-02-21T03:49:19.983Z,0.63
2018-02-21T03:51:47.506Z,0.56
2018-02-21T03:54:15.177Z,0.68
2018-02-21T03:56:42.775Z,0.72
2018-02-21T03:59:10.326Z,0.65
2018-02-21T04:01:37.843Z,0.61
2018-02-21T04:04:05.372Z,0.68
2018-02-21T04:06:32.962Z,0.67
2018-02-21T04:09:00.500Z,0.69
2018-02-21T04:11:28.257Z,0.71
2018-02-21T04:13:56.046Z,0.72
2018-02-21T04:16:23.600Z,0.59
2018-02-21T04:18:51.132Z,0.67
2018-02-21T04:21:18.686Z,0.67
2018-02-21T04:23:46.235Z,0.66
2018-02-21T04:26:13.774Z,0.55
2018-02-21T04:28:41.457Z,0.55
2018-02-21T04:31:09.007Z,0.49
2018-02-21T04:33:36.514Z,0.47
2018-02-21T04:36:04.098Z,0.52
2018-02-21T04:38:31.615Z,0.57
2018-02-21T04:40:59.396Z,0.54
2018-02-21T04:43:26.944Z,0.56
2018-02-21T04:45:54.481Z,0.47
2018-02-21T04:48:22.049Z,0.45
2018-02-21T04:50:49.846Z,0.38
2018-02-21T04:53:17.396Z,0.37
2018-02-21T04:58:55.564Z,0.42
2018-02-21T05:01:23.096Z,0.40
2018-02-21T05:03:50.965Z,0.44
2018-02-21T05:06:18.515Z,0.47
2018-02-21T05:08:46.296Z,0.48
2018-02-21T05:11:13.843Z,0.43
2018-02-21T05:13:41.429Z,0.45
2018-02-21T05:16:08.999Z,0.58
2018-02-21T05:18:36.547Z,0.51
2018-02-21T05:21:04.140Z,0.49
2018-02-21T05:23:31.685Z,0.41
2018-02-21T05:25:59.553Z,0.42
2018-02-21T05:28:27.057Z,0.52
2018-02-21T05:30:54.958Z,0.46
2018-02-21T05:33:22.478Z,0.45
2018-02-21T05:35:50.029Z,0.45
2018-02-21T05:38:17.595Z,0.41
2018-02-21T05:40:45.138Z,0.38
2018-02-21T05:43:12.718Z,0.41
2018-02-21T05:45:40.524Z,0.35
2018-02-21T05:48:08.041Z,0.34
2018-02-21T05:50:35.598Z,0.35
2018-02-21T05:53:03.425Z,0.34
2018-02-21T05:55:30.991Z,0.32
2018-02-21T05:57:58.518Z,0.33
2018-02-21T06:00:26.125Z,0.43
2018-02-21T06:02:53.674Z,0.36
2018-02-21T06:05:21.301Z,0.35
2018-02-21T06:07:48.863Z,0.32
2018-02-21T06:10:16.422Z,0.38
2018-02-21T06:12:43.946Z,0.35
2018-02-21T06:15:11.543Z,0.31
2018-02-21T06:17:39.096Z,0.29
2018-02-21T06:20:06.664Z,0.36
2018-02-21T06:22:34.221Z,0.36
2018-02-21T06:25:01.809Z,0.45
2018-02-21T06:27:29.320Z,0.40
2018-02-21T06:29:56.878Z,0.37
2018-02-21T06:32:24.419Z,0.35
2018-02-21T06:34:51.967Z,0.36
2018-02-21T06:37:19.544Z,0.42
2018-02-21T06:39:47.474Z,0.39
2018-02-21T06:42:15.021Z,0.39
2018-02-21T06:44:42.545Z,0.48
2018-02-21T06:47:10.061Z,0.50
2018-02-21T06:49:37.919Z,0.56
2018-02-21T06:52:05.462Z,0.57
2018-02-21T06:54:33.049Z,0.56
2018-02-21T06:57:00.597Z,0.60
2018-02-21T06:59:28.366Z,0.66
2018-02-21T07:01:55.927Z,0.72
2018-02-21T07:04:23.814Z,0.80
2018-02-21T07:06:51.357Z,0.89
2018-02-21T07:09:19.123Z,0.94
2018-02-21T07:11:46.653Z,0.88
2018-02-21T07:14:14.243Z,0.94
2018-02-21T07:16:41.771Z,0.91
2018-02-21T07:19:09.291Z,0.94
2018-02-21T07:21:36.826Z,0.98
2018-02-21T07:24:04.382Z,1.07
2018-02-21T07:26:31.981Z,1.04
2018-02-21T07:28:59.502Z,1.08
2018-02-21T07:31:27.402Z,1.09
2018-02-21T07:33:55.602Z,1.09
2018-02-21T07:36:23.167Z,1.15
2018-02-21T07:38:50.681Z,1.22
2018-02-21T07:41:18.231Z,1.16
2018-02-21T07:43:45.795Z,1.13
2018-02-21T07:46:13.330Z,1.07
2018-02-21T07:48:40.896Z,0.97
2018-02-21T07:51:08.452Z,1.10
2018-02-21T07:53:36.017Z,1.12
2018-02-21T07:56:03.588Z,1.13
2018-02-21T07:58:31.368Z,1.20
2018-02-21T08:00:58.949Z,1.35
2018-02-21T08:03:26.786Z,1.21
2018-02-21T08:05:54.341Z,1.29
2018-02-21T08:08:21.854Z,1.33
2018-02-21T08:10:49.428Z,1.39
2018-02-21T08:13:16.951Z,1.49
2018-02-21T08:15:44.466Z,1.68
2018-02-21T08:18:12.024Z,1.64
2018-02-21T08:20:39.583Z,1.70
2018-02-21T08:23:07.142Z,1.69
2018-02-21T08:25:34.701Z,1.79
2018-02-21T08:28:02.246Z,1.87
2018-02-21T08:30:29.801Z,1.89
2018-02-21T08:32:57.622Z,2.00
2018-02-21T08:35:25.488Z,2.04
2018-02-21T08:37:53.008Z,2.02
2018-02-21T08:40:20.656Z,1.90
2018-02-21T08:42:48.216Z,1.99
2018-02-21T08:45:15.749Z,2.00
2018-02-21T08:47:43.277Z,2.07
2018-02-21T08:50:10.868Z,2.13
2018-02-21T08:52:38.398Z,2.17
2018-02-21T08:55:06.192Z,2.25
2018-02-21T08:57:33.792Z,2.27
2018-02-21T09:00:01.353Z,2.33
2018-02-21T09:02:28.914Z,2.25
2018-02-21T09:04:56.434Z,2.26
2018-02-21T09:07:24.012Z,2.17
2018-02-21T09:09:51.543Z,2.26
2018-02-21T09:12:19.337Z,2.37
2018-02-21T09:14:46.872Z,2.55
2018-02-21T09:17:14.407Z,2.70
2018-02-21T09:19:41.957Z,2.88
2018-02-21T09:22:09.501Z,2.93
2018-02-21T09:24:37.052Z,2.97
2018-02-21T09:27:04.559Z,3.16
2018-02-21T09:29:32.361Z,3.18
2018-02-21T09:31:59.936Z,3.33
2018-02-21T09:34:27.460Z,3.43
2018-02-21T09:36:55.012Z,3.58
2018-02-21T09:39:22.530Z,3.59
2018-02-21T09:41:50.053Z,3.63
2018-02-21T09:44:17.906Z,3.72
2018-02-21T09:46:45.445Z,3.72
2018-02-21T09:49:13.085Z,3.88
2018-02-21T09:51:40.662Z,3.94
2018-02-21T09:54:08.180Z,4.20
2018-02-21T09:56:35.819Z,4.25
2018-02-21T09:59:03.355Z,4.31
2018-02-21T10:01:30.944Z,4.51
2018-02-21T10:03:58.506Z,4.65
2018-02-21T10:06:26.420Z,4.88
2018-02-21T10:08:53.931Z,4.94
2018-02-21T10:11:21.787Z,4.84
2018-02-21T10:13:49.558Z,4.89
2018-02-21T10:16:17.111Z,4.85
2018-02-21T10:18:44.983Z,5.01
2018-02-21T10:21:12.850Z,5.11
2018-02-21T10:23:40.395Z,5.21
2018-02-21T10:26:07.934Z,5.30
2018-02-21T10:28:35.466Z,5.35
2018-02-21T10:31:03.046Z,5.29
2018-02-21T10:33:30.684Z,4.88
2018-02-21T10:35:58.529Z,4.99
2018-02-21T10:38:26.072Z,4.96
2018-02-21T10:40:53.670Z,5.21
2018-02-21T10:43:21.240Z,5.43
2018-02-21T10:45:48.768Z,5.60
2018-02-21T10:48:16.329Z,5.70
2018-02-21T10:50:43.831Z,5.77
2018-02-21T10:53:11.973Z,5.64
2018-02-21T10:55:39.494Z,5.42
2018-02-21T10:58:07.054Z,5.36
2018-02-21T11:00:40.294Z,5.60
2018-02-21T11:03:07.839Z,5.64
2018-02-21T11:05:35.366Z,5.90
2018-02-21T11:08:02.921Z,6.05
2018-02-21T11:10:30.573Z,6.28
2018-02-21T11:12:58.128Z,6.27
2018-02-21T11:15:25.648Z,6.26
2018-02-21T11:17:53.199Z,5.93
2018-02-21T11:20:20.705Z,5.95
2018-02-21T11:22:48.526Z,5.93
2018-02-21T11:25:16.055Z,6.02
2018-02-21T11:27:43.678Z,5.70
2018-02-21T11:30:11.198Z,5.32
2018-02-21T11:32:38.778Z,5.12
2018-02-21T11:35:06.315Z,5.17
2018-02-21T11:37:34.091Z,5.40
2018-02-21T11:40:01.895Z,5.44
2018-02-21T11:42:29.424Z,5.53
2018-02-21T11:44:56.962Z,5.35
2018-02-21T11:47:24.495Z,5.17
2018-02-21T11:49:52.077Z,5.05
2018-02-21T11:52:19.679Z,5.15
2018-02-21T11:54:47.189Z,5.23
2018-02-21T11:57:14.754Z,5.26
2018-02-21T11:59:42.299Z,5.38
2018-02-21T12:02:09.861Z,5.60
2018-02-21T12:04:37.439Z,5.78
2018-02-21T12:07:04.961Z,5.68
2018-02-21T12:09:32.523Z,5.86
2018-02-21T12:12:00.079Z,5.71
2018-02-21T12:14:27.682Z,5.92
2018-02-21T12:16:55.575Z,6.06
2018-02-21T12:19:23.364Z,5.98
2018-02-21T12:21:50.889Z,6.16
2018-02-21T12:24:18.455Z,6.32
2018-02-21T12:26:46.028Z,6.44
2018-02-21T12:29:13.579Z,6.32
2018-02-21T12:31:41.639Z,6.63
2018-02-21T12:34:09.212Z,6.55
2018-02-21T12:36:36.739Z,6.34
2018-02-21T12:39:09.854Z,6.12
2018-02-21T12:41:43.277Z,6.17
2018-02-21T12:44:11.137Z,5.91
2018-02-21T12:46:38.657Z,5.85
2018-02-21T12:49:06.197Z,6.09
2018-02-21T12:51:33.722Z,5.96
2018-02-21T12:54:01.320Z,5.98
2018-02-21T12:56:28.833Z,6.10
2018-02-21T12:58:56.806Z,6.01
2018-02-21T13:01:24.334Z,5.91
2018-02-21T13:03:51.894Z,5.98
2018-02-21T13:06:19.426Z,6.02
2018-02-21T13:08:46.954Z,6.09
2018-02-21T13:11:15.609Z,6.10
2018-02-21T13:13:43.157Z,6.20
2018-02-21T13:16:10.781Z,6.12
2018-02-21T13:18:38.308Z,6.09
2018-02-21T13:21:05.849Z,5.69
2018-02-21T13:23:33.486Z,5.41
2018-02-21T13:26:01.044Z,5.42
2018-02-21T13:28:28.620Z,5.55
2018-02-21T13:30:56.172Z,5.68
2018-02-21T13:33:23.706Z,5.93
2018-02-21T13:35:51.346Z,5.97
2018-02-21T13:38:18.908Z,6.11
2018-02-21T13:40:46.802Z,6.11
2018-02-21T13:43:14.638Z,6.23
2018-02-21T13:45:42.190Z,6.28
2018-02-21T13:48:09.704Z,6.23
2018-02-21T13:50:38.670Z,6.26
2018-02-21T13:53:06.198Z,6.13
2018-02-21T13:55:33.756Z,6.04
2018-02-21T13:58:01.317Z,6.01
2018-02-21T14:00:28.917Z,6.08
2018-02-21T14:02:56.906Z,6.05
2018-02-21T14:05:24.567Z,6.06
2018-02-21T14:07:52.120Z,5.87
2018-02-21T14:10:19.686Z,6.04
2018-02-21T14:12:47.233Z,5.80
2018-02-21T14:15:14.801Z,5.76
2018-02-21T14:17:42.338Z,5.65
2018-02-21T14:20:09.861Z,5.84
2018-02-21T14:22:37.470Z,5.86
2018-02-21T14:25:05.025Z,5.97
2018-02-21T14:27:32.989Z,5.93
2018-02-21T14:30:00.531Z,5.92
2018-02-21T14:32:28.064Z,6.03
2018-02-21T14:34:55.683Z,6.17
2018-02-21T14:37:23.208Z,6.51
2018-02-21T14:39:50.750Z,6.58
2018-02-21T14:42:18.261Z,6.72
2018-02-21T14:44:45.869Z,6.78
2018-02-21T14:47:13.521Z,6.11
2018-02-21T14:49:41.343Z,5.63
2018-02-21T14:52:08.898Z,5.43
2018-02-21T14:54:36.457Z,5.37
2018-02-21T14:57:04.232Z,5.21
2018-02-21T14:59:31.779Z,5.14
2018-02-21T15:01:59.317Z,5.18
2018-02-21T15:04:26.845Z,5.23
2018-02-21T15:06:54.395Z,5.16
2018-02-21T15:09:22.232Z,5.12
2018-02-21T15:11:49.792Z,5.09
2018-02-21T15:14:17.329Z,5.05
2018-02-21T15:16:44.894Z,5.06
2018-02-21T15:19:12.410Z,5.13
2018-02-21T15:21:39.961Z,5.04
2018-02-21T15:24:07.485Z,4.96
2018-02-21T15:26:35.076Z,4.91
2018-02-21T15:29:02.610Z,4.86
2018-02-21T15:31:30.918Z,4.90
2018-02-21T15:33:58.448Z,4.95
2018-02-21T15:36:25.982Z,4.94
2018-02-21T15:38:53.582Z,4.87
2018-02-21T15:41:21.161Z,4.84
2018-02-21T15:43:48.663Z,4.80
2018-02-21T15:46:16.200Z,4.68
2018-02-21T15:48:43.785Z,4.66
2018-02-21T15:51:11.337Z,4.59
2018-02-21T15:53:38.859Z,4.55
2018-02-21T15:56:06.631Z,4.58
2018-02-21T15:58:34.197Z,4.49
2018-02-21T16:01:01.793Z,4.52
2018-02-21T16:03:29.343Z,4.48
2018-02-21T16:05:56.925Z,4.40
2018-02-21T16:08:24.489Z,4.33
2018-02-21T16:10:52.125Z,4.17
2018-02-21T16:13:19.656Z,3.99
2018-02-21T16:15:47.215Z,3.94
2018-02-21T16:18:14.774Z,3.95
2018-02-21T16:20:42.305Z,3.99
2018-02-21T16:23:10.184Z,4.01
2018-02-21T16:25:37.722Z,3.96
2018-02-21T16:28:05.306Z,3.89
2018-02-21T16:30:32.830Z,3.83
2018-02-21T16:33:00.367Z,3.81
2018-02-21T16:35:27.952Z,3.79
2018-02-21T16:37:55.523Z,3.79
2018-02-21T16:40:23.340Z,3.79
2018-02-21T16:42:51.145Z,3.72
2018-02-21T16:45:18.730Z,3.76
2018-02-21T16:47:46.317Z,3.77
2018-02-21T16:50:13.851Z,3.66
2018-02-21T16:52:41.453Z,3.70
2018-02-21T16:55:08.983Z,3.66
2018-02-21T16:57:36.564Z,3.57
2018-02-21T17:00:04.106Z,3.60
2018-02-21T17:02:31.686Z,3.60
2018-02-21T17:04:59.226Z,3.59
2018-02-21T17:07:26.818Z,3.57
2018-02-21T17:09:54.371Z,3.59
2018-02-21T17:12:22.218Z,3.57
2018-02-21T17:14:49.797Z,3.54
2018-02-21T17:17:17.526Z,3.57
2018-02-21T17:19:45.083Z,3.53
2018-02-21T17:22:12.659Z,3.50
2018-02-21T17:24:40.194Z,3.56
2018-02-21T17:27:07.839Z,3.57
2018-02-21T17:29:35.388Z,3.58
2018-02-21T17:32:03.126Z,3.55
2018-02-21T17:34:31.116Z,3.50
2018-02-21T17:36:58.813Z,3.46
2018-02-21T17:39:26.389Z,3.37
2018-02-21T17:41:54.016Z,3.39
2018-02-21T17:44:21.558Z,3.46
2018-02-21T17:46:49.395Z,3.49
2018-02-21T17:49:16.983Z,3.43
2018-02-21T17:51:44.589Z,3.41
2018-02-21T17:54:12.267Z,3.51
2018-02-21T17:56:40.190Z,3.47
2018-02-21T17:59:08.021Z,3.49
2018-02-21T18:01:35.558Z,3.44
2018-02-21T18:04:03.389Z,3.37
2018-02-21T18:06:31.136Z,3.44
2018-02-21T18:08:58.772Z,3.49
2018-02-21T18:11:26.523Z,3.44
2018-02-21T18:13:54.115Z,3.46
2018-02-21T18:16:21.863Z,3.48
2018-02-21T18:18:49.607Z,3.39
2018-02-21T18:21:22.876Z,3.33
2018-02-21T18:23:50.430Z,3.36
2018-02-21T18:26:18.260Z,3.39
2018-02-21T18:28:45.846Z,3.43
2018-02-21T18:31:13.748Z,3.44
2018-02-21T18:33:41.290Z,3.41
2018-02-21T18:36:08.908Z,3.38
2018-02-21T18:38:36.411Z,3.35
2018-02-21T18:41:03.919Z,3.33
2018-02-21T18:43:31.491Z,3.27
2018-02-21T18:45:59.171Z,3.33
2018-02-21T18:48:26.755Z,3.30
2018-02-21T18:50:54.593Z,3.34
2018-02-21T18:53:22.141Z,3.37
2018-02-21T18:55:49.690Z,3.25
2018-02-21T18:58:17.468Z,3.32
2018-02-21T19:00:45.027Z,3.29
2018-02-21T19:03:12.602Z,3.33
2018-02-21T19:05:40.455Z,3.23
2018-02-21T19:08:07.970Z,3.33
2018-02-21T19:10:35.490Z,3.34
2018-02-21T19:13:03.049Z,3.29
2018-02-21T19:15:30.608Z,3.24
2018-02-21T19:17:58.167Z,3.25
2018-02-21T19:20:25.753Z,3.24
2018-02-21T19:22:53.877Z,3.21
2018-02-21T19:25:21.429Z,3.24
2018-02-21T19:27:48.967Z,3.19
2018-02-21T19:30:16.538Z,3.20
2018-02-21T19:32:44.104Z,3.22
2018-02-21T19:35:11.728Z,3.16
2018-02-21T19:37:39.299Z,3.25
2018-02-21T19:40:06.885Z,3.28
2018-02-21T19:42:34.480Z,3.31
2018-02-21T19:45:02.019Z,3.25
2018-02-21T19:47:29.625Z,3.24
2018-02-21T19:49:57.156Z,3.26
2018-02-21T19:52:24.702Z,3.16
2018-02-21T19:54:52.266Z,3.09
2018-02-21T19:57:19.799Z,3.10
2018-02-21T19:59:47.358Z,3.08
2018-02-21T20:02:14.948Z,3.16
2018-02-21T20:04:42.577Z,3.20
2018-02-21T20:07:10.221Z,3.24
2018-02-21T20:09:38.178Z,3.19
2018-02-21T20:12:05.744Z,3.16
2018-02-21T20:14:33.878Z,3.12
2018-02-21T20:17:02.234Z,3.10
2018-02-21T20:19:30.616Z,3.04
2018-02-21T20:21:58.203Z,3.08
2018-02-21T20:24:25.782Z,3.02
2018-02-21T20:26:53.318Z,3.08
2018-02-21T20:29:20.869Z,3.07
2018-02-21T20:31:48.396Z,3.11
2018-02-21T20:34:15.950Z,3.06
2018-02-21T20:36:43.486Z,3.06
2018-02-21T20:39:11.042Z,3.05
2018-02-21T20:41:38.606Z,2.97
2018-02-21T20:44:06.174Z,2.86
2018-02-21T20:46:33.723Z,2.86
2018-02-21T20:49:01.308Z,2.80
2018-02-21T20:51:28.879Z,2.82
2018-02-21T20:53:56.405Z,2.89
2018-02-21T20:56:23.941Z,2.82
2018-02-21T20:58:51.549Z,2.80
2018-02-21T21:01:19.096Z,2.81
2018-02-21T21:03:46.857Z,2.79
2018-02-21T21:06:14.620Z,2.81
2018-02-21T21:08:42.196Z,2.76
2018-02-21T21:11:09.876Z,2.72
2018-02-21T21:13:39.462Z,2.74
2018-02-21T21:16:07.063Z,2.71
2018-02-21T21:18:34.610Z,2.74
2018-02-21T21:21:02.729Z,2.69
2018-02-21T21:23:34.438Z,2.72
2018-02-21T21:26:02.887Z,2.68
2018-02-21T21:28:30.858Z,2.73
2018-02-21T21:30:58.431Z,2.70
2018-02-21T21:33:25.977Z,2.70
2018-02-21T21:35:53.880Z,2.64
2018-02-21T21:38:21.511Z,2.62
2018-02-21T21:40:49.031Z,2.60
2018-02-21T21:43:16.558Z,2.61
2018-02-21T21:45:44.164Z,2.61
2018-02-21T21:48:11.978Z,2.58
2018-02-21T21:50:39.922Z,2.59
2018-02-21T21:53:07.458Z,2.64
2018-02-21T21:55:35.027Z,2.56
2018-02-21T21:58:02.621Z,2.54
2018-02-21T22:00:30.184Z,2.58
2018-02-21T22:02:57.810Z,2.64
2018-02-21T22:05:25.392Z,2.63
2018-02-21T22:07:52.984Z,2.63
2018-02-21T22:10:20.505Z,2.62
2018-02-21T22:12:48.029Z,2.59
2018-02-21T22:15:15.787Z,2.53
2018-02-21T22:17:43.442Z,2.65
2018-02-21T22:20:11.083Z,2.59
2018-02-21T22:22:38.652Z,2.51
2018-02-21T22:25:06.511Z,2.51
2018-02-21T22:27:34.059Z,2.52
2018-02-21T22:30:01.571Z,2.52
2018-02-21T22:32:29.386Z,2.54
2018-02-21T22:34:57.271Z,2.47
2018-02-21T22:37:24.861Z,2.48
2018-02-21T22:39:52.423Z,2.44
2018-02-21T22:42:19.964Z,2.35
2018-02-21T22:44:49.212Z,2.29
2018-02-21T22:47:17.072Z,2.24
2018-02-21T22:49:44.678Z,2.27
2018-02-21T22:52:12.242Z,2.18
2018-02-21T22:54:40.653Z,2.21
2018-02-21T22:57:08.705Z,2.22
2018-02-21T22:59:37.800Z,2.21
2018-02-21T23:02:05.370Z,2.19
2018-02-21T23:04:33.052Z,2.26
2018-02-21T23:07:00.629Z,2.19
2018-02-21T23:09:28.741Z,2.19
2018-02-21T23:11:56.271Z,2.15
2018-02-21T23:14:24.992Z,2.14
2018-02-21T23:16:52.522Z,2.07
2018-02-21T23:19:20.117Z,2.03
2018-02-21T23:21:47.761Z,1.97
2018-02-21T23:24:15.306Z,1.94
2018-02-21T23:26:42.896Z,1.94
2018-02-21T23:29:10.538Z,1.94
2018-02-21T23:31:38.079Z,1.99
2018-02-21T23:34:05.727Z,1.94
2018-02-21T23:36:33.260Z,1.89
2018-02-21T23:39:00.876Z,1.92
2018-02-21T23:41:28.569Z,1.97
2018-02-21T23:43:56.197Z,2.00
2018-02-21T23:46:23.738Z,1.97
2018-02-21T23:48:51.255Z,1.90
2018-02-21T23:51:18.868Z,1.84
2018-02-21T23:53:46.438Z,1.86
2018-02-21T23:56:14.222Z,1.89
2018-02-21T23:58:41.743Z,1.89
